sensor_id;sensor_type;location;lat;lon;timestamp;P1;durP1;ratioP1;P2;durP2;ratioP2
51499;SDS011;39101;53.478;6.158;2023-09-08T00:01:55;11.55;;;8.93;;
51499;SDS011;39101;53.478;6.158;2023-09-08T00:04:21;14.27;;;9.35;;
51499;SDS011;39101;53.478;6.158;2023-09-08T00:06:47;11.00;;;8.77;;
51499;SDS011;39101;53.478;6.158;2023-09-08T00:09:12;11.77;;;9.85;;
51499;SDS011;39101;53.478;6.158;2023-09-08T00:11:38;11.35;;;8.77;;
51499;SDS011;39101;53.478;6.158;2023-09-08T00:14:04;12.25;;;8.55;;
51499;SDS011;39101;53.478;6.158;2023-09-08T00:16:30;16.02;;;8.25;;
51499;SDS011;39101;53.478;6.158;2023-09-08T00:18:56;12.23;;;8.70;;
51499;SDS011;39101;53.478;6.158;2023-09-08T00:21:25;15.75;;;8.95;;
51499;SDS011;39101;53.478;6.158;2023-09-08T00:23:51;9.60;;;8.60;;
51499;SDS011;39101;53.478;6.158;2023-09-08T00:26:17;11.02;;;9.20;;
51499;SDS011;39101;53.478;6.158;2023-09-08T00:28:43;11.00;;;8.88;;
51499;SDS011;39101;53.478;6.158;2023-09-08T00:31:09;12.00;;;8.60;;
51499;SDS011;39101;53.478;6.158;2023-09-08T00:33:34;10.65;;;9.05;;
51499;SDS011;39101;53.478;6.158;2023-09-08T00:36:00;10.48;;;8.80;;
51499;SDS011;39101;53.478;6.158;2023-09-08T00:38:26;9.93;;;8.90;;
51499;SDS011;39101;53.478;6.158;2023-09-08T00:40:51;11.93;;;9.93;;
51499;SDS011;39101;53.478;6.158;2023-09-08T00:43:17;10.95;;;8.65;;
51499;SDS011;39101;53.478;6.158;2023-09-08T00:45:43;11.13;;;8.95;;
51499;SDS011;39101;53.478;6.158;2023-09-08T00:48:10;10.52;;;9.25;;
51499;SDS011;39101;53.478;6.158;2023-09-08T00:50:36;12.68;;;9.27;;
51499;SDS011;39101;53.478;6.158;2023-09-08T00:53:04;10.77;;;9.02;;
51499;SDS011;39101;53.478;6.158;2023-09-08T00:55:33;9.23;;;8.25;;
51499;SDS011;39101;53.478;6.158;2023-09-08T00:58:00;12.35;;;9.07;;
51499;SDS011;39101;53.478;6.158;2023-09-08T01:00:28;10.40;;;9.23;;
51499;SDS011;39101;53.478;6.158;2023-09-08T01:02:53;11.95;;;8.70;;
51499;SDS011;39101;53.478;6.158;2023-09-08T01:05:19;10.38;;;8.70;;
51499;SDS011;39101;53.478;6.158;2023-09-08T01:07:46;10.32;;;8.75;;
51499;SDS011;39101;53.478;6.158;2023-09-08T01:10:13;11.55;;;8.70;;
51499;SDS011;39101;53.478;6.158;2023-09-08T01:12:43;11.68;;;8.60;;
51499;SDS011;39101;53.478;6.158;2023-09-08T01:15:09;12.88;;;8.55;;
51499;SDS011;39101;53.478;6.158;2023-09-08T01:17:34;12.93;;;8.30;;
51499;SDS011;39101;53.478;6.158;2023-09-08T01:20:22;11.27;;;9.40;;
51499;SDS011;39101;53.478;6.158;2023-09-08T01:23:19;13.98;;;9.05;;
51499;SDS011;39101;53.478;6.158;2023-09-08T01:28:20;13.43;;;9.13;;
51499;SDS011;39101;53.478;6.158;2023-09-08T01:30:47;11.88;;;8.65;;
51499;SDS011;39101;53.478;6.158;2023-09-08T01:33:13;15.70;;;9.20;;
51499;SDS011;39101;53.478;6.158;2023-09-08T01:35:39;11.43;;;9.82;;
51499;SDS011;39101;53.478;6.158;2023-09-08T01:38:05;11.73;;;8.73;;
51499;SDS011;39101;53.478;6.158;2023-09-08T01:40:31;11.75;;;8.55;;
51499;SDS011;39101;53.478;6.158;2023-09-08T01:42:56;11.73;;;9.93;;
51499;SDS011;39101;53.478;6.158;2023-09-08T01:45:22;11.52;;;9.57;;
51499;SDS011;39101;53.478;6.158;2023-09-08T01:47:48;11.77;;;9.07;;
51499;SDS011;39101;53.478;6.158;2023-09-08T01:50:13;10.88;;;9.73;;
51499;SDS011;39101;53.478;6.158;2023-09-08T01:52:41;10.18;;;8.90;;
51499;SDS011;39101;53.478;6.158;2023-09-08T01:55:06;12.48;;;8.88;;
51499;SDS011;39101;53.478;6.158;2023-09-08T01:57:33;11.52;;;8.43;;
51499;SDS011;39101;53.478;6.158;2023-09-08T01:59:58;12.75;;;10.20;;
51499;SDS011;39101;53.478;6.158;2023-09-08T02:02:24;11.70;;;9.25;;
51499;SDS011;39101;53.478;6.158;2023-09-08T02:04:49;9.60;;;8.65;;
51499;SDS011;39101;53.478;6.158;2023-09-08T02:07:15;12.02;;;10.32;;
51499;SDS011;39101;53.478;6.158;2023-09-08T02:09:41;12.95;;;9.25;;
51499;SDS011;39101;53.478;6.158;2023-09-08T02:12:07;10.55;;;8.80;;
51499;SDS011;39101;53.478;6.158;2023-09-08T02:14:33;11.20;;;9.80;;
51499;SDS011;39101;53.478;6.158;2023-09-08T02:16:58;10.10;;;9.05;;
51499;SDS011;39101;53.478;6.158;2023-09-08T02:19:24;14.23;;;9.90;;
51499;SDS011;39101;53.478;6.158;2023-09-08T02:21:50;15.02;;;9.52;;
51499;SDS011;39101;53.478;6.158;2023-09-08T02:24:15;15.95;;;10.15;;
51499;SDS011;39101;53.478;6.158;2023-09-08T02:26:41;11.63;;;8.85;;
51499;SDS011;39101;53.478;6.158;2023-09-08T02:29:08;11.32;;;9.95;;
51499;SDS011;39101;53.478;6.158;2023-09-08T02:31:34;11.80;;;9.80;;
51499;SDS011;39101;53.478;6.158;2023-09-08T02:33:59;14.18;;;9.50;;
51499;SDS011;39101;53.478;6.158;2023-09-08T02:36:25;10.50;;;8.30;;
51499;SDS011;39101;53.478;6.158;2023-09-08T02:38:55;10.35;;;9.25;;
51499;SDS011;39101;53.478;6.158;2023-09-08T02:41:21;10.27;;;9.15;;
51499;SDS011;39101;53.478;6.158;2023-09-08T02:43:47;12.43;;;9.60;;
51499;SDS011;39101;53.478;6.158;2023-09-08T02:46:13;11.52;;;9.70;;
51499;SDS011;39101;53.478;6.158;2023-09-08T02:48:39;16.35;;;10.07;;
51499;SDS011;39101;53.478;6.158;2023-09-08T02:51:05;11.73;;;9.45;;
51499;SDS011;39101;53.478;6.158;2023-09-08T02:53:31;14.15;;;10.00;;
51499;SDS011;39101;53.478;6.158;2023-09-08T02:55:57;11.27;;;9.43;;
51499;SDS011;39101;53.478;6.158;2023-09-08T02:58:23;11.45;;;9.32;;
51499;SDS011;39101;53.478;6.158;2023-09-08T03:00:49;10.60;;;8.77;;
51499;SDS011;39101;53.478;6.158;2023-09-08T03:03:17;11.88;;;9.73;;
51499;SDS011;39101;53.478;6.158;2023-09-08T03:05:43;11.88;;;9.45;;
51499;SDS011;39101;53.478;6.158;2023-09-08T03:08:10;11.95;;;10.40;;
51499;SDS011;39101;53.478;6.158;2023-09-08T03:10:35;11.45;;;10.25;;
51499;SDS011;39101;53.478;6.158;2023-09-08T03:13:01;11.15;;;10.02;;
51499;SDS011;39101;53.478;6.158;2023-09-08T03:15:27;11.77;;;10.35;;
51499;SDS011;39101;53.478;6.158;2023-09-08T03:17:57;13.55;;;10.82;;
51499;SDS011;39101;53.478;6.158;2023-09-08T03:20:26;14.55;;;10.40;;
51499;SDS011;39101;53.478;6.158;2023-09-08T03:22:53;12.40;;;11.10;;
51499;SDS011;39101;53.478;6.158;2023-09-08T03:25:19;11.02;;;9.93;;
51499;SDS011;39101;53.478;6.158;2023-09-08T03:27:45;14.23;;;10.82;;
51499;SDS011;39101;53.478;6.158;2023-09-08T03:30:11;12.23;;;10.13;;
51499;SDS011;39101;53.478;6.158;2023-09-08T03:32:37;12.13;;;10.85;;
51499;SDS011;39101;53.478;6.158;2023-09-08T03:35:03;12.20;;;10.65;;
51499;SDS011;39101;53.478;6.158;2023-09-08T03:37:32;12.55;;;11.23;;
51499;SDS011;39101;53.478;6.158;2023-09-08T03:39:58;13.85;;;11.25;;
51499;SDS011;39101;53.478;6.158;2023-09-08T03:42:24;14.95;;;10.55;;
51499;SDS011;39101;53.478;6.158;2023-09-08T03:44:50;13.98;;;11.45;;
51499;SDS011;39101;53.478;6.158;2023-09-08T03:47:15;14.45;;;11.65;;
51499;SDS011;39101;53.478;6.158;2023-09-08T03:49:41;12.98;;;11.25;;
51499;SDS011;39101;53.478;6.158;2023-09-08T03:52:07;12.27;;;10.80;;
51499;SDS011;39101;53.478;6.158;2023-09-08T03:54:32;12.05;;;10.35;;
51499;SDS011;39101;53.478;6.158;2023-09-08T03:56:58;13.10;;;11.25;;
51499;SDS011;39101;53.478;6.158;2023-09-08T03:59:24;12.38;;;11.07;;
51499;SDS011;39101;53.478;6.158;2023-09-08T04:01:49;13.32;;;10.52;;
51499;SDS011;39101;53.478;6.158;2023-09-08T04:04:15;14.82;;;11.20;;
51499;SDS011;39101;53.478;6.158;2023-09-08T04:06:41;13.05;;;11.20;;
51499;SDS011;39101;53.478;6.158;2023-09-08T04:09:06;13.07;;;10.75;;
51499;SDS011;39101;53.478;6.158;2023-09-08T04:11:32;14.23;;;11.32;;
51499;SDS011;39101;53.478;6.158;2023-09-08T04:13:58;13.02;;;11.65;;
51499;SDS011;39101;53.478;6.158;2023-09-08T04:16:25;12.05;;;10.80;;
51499;SDS011;39101;53.478;6.158;2023-09-08T04:18:51;15.93;;;11.05;;
51499;SDS011;39101;53.478;6.158;2023-09-08T04:21:16;12.85;;;11.00;;
51499;SDS011;39101;53.478;6.158;2023-09-08T04:23:42;12.93;;;11.23;;
51499;SDS011;39101;53.478;6.158;2023-09-08T04:26:08;15.25;;;10.80;;
51499;SDS011;39101;53.478;6.158;2023-09-08T04:28:33;12.15;;;10.60;;
51499;SDS011;39101;53.478;6.158;2023-09-08T04:30:59;13.82;;;11.82;;
51499;SDS011;39101;53.478;6.158;2023-09-08T04:33:24;14.60;;;11.50;;
51499;SDS011;39101;53.478;6.158;2023-09-08T04:35:51;13.35;;;10.85;;
51499;SDS011;39101;53.478;6.158;2023-09-08T04:38:16;12.93;;;11.25;;
51499;SDS011;39101;53.478;6.158;2023-09-08T04:40:42;13.25;;;11.85;;
51499;SDS011;39101;53.478;6.158;2023-09-08T04:43:10;12.25;;;10.95;;
51499;SDS011;39101;53.478;6.158;2023-09-08T04:45:36;12.43;;;11.07;;
51499;SDS011;39101;53.478;6.158;2023-09-08T04:48:02;12.52;;;11.23;;
51499;SDS011;39101;53.478;6.158;2023-09-08T04:50:29;13.38;;;11.30;;
51499;SDS011;39101;53.478;6.158;2023-09-08T04:52:55;13.75;;;12.02;;
51499;SDS011;39101;53.478;6.158;2023-09-08T04:55:20;14.80;;;12.13;;
51499;SDS011;39101;53.478;6.158;2023-09-08T04:57:46;14.00;;;12.10;;
51499;SDS011;39101;53.478;6.158;2023-09-08T05:00:12;13.50;;;12.10;;
51499;SDS011;39101;53.478;6.158;2023-09-08T05:02:38;13.75;;;11.55;;
51499;SDS011;39101;53.478;6.158;2023-09-08T05:05:04;15.77;;;12.48;;
51499;SDS011;39101;53.478;6.158;2023-09-08T05:07:29;15.65;;;12.35;;
51499;SDS011;39101;53.478;6.158;2023-09-08T05:09:55;15.80;;;12.50;;
51499;SDS011;39101;53.478;6.158;2023-09-08T05:12:21;13.40;;;11.70;;
51499;SDS011;39101;53.478;6.158;2023-09-08T05:14:46;13.60;;;11.70;;
51499;SDS011;39101;53.478;6.158;2023-09-08T05:17:12;12.93;;;11.30;;
51499;SDS011;39101;53.478;6.158;2023-09-08T05:19:38;15.55;;;11.25;;
51499;SDS011;39101;53.478;6.158;2023-09-08T05:22:04;15.30;;;12.07;;
51499;SDS011;39101;53.478;6.158;2023-09-08T05:24:32;11.98;;;10.73;;
51499;SDS011;39101;53.478;6.158;2023-09-08T05:26:57;13.73;;;12.32;;
51499;SDS011;39101;53.478;6.158;2023-09-08T05:29:23;12.70;;;11.30;;
51499;SDS011;39101;53.478;6.158;2023-09-08T05:31:49;13.05;;;11.68;;
51499;SDS011;39101;53.478;6.158;2023-09-08T05:34:15;14.00;;;12.50;;
51499;SDS011;39101;53.478;6.158;2023-09-08T05:36:40;12.55;;;11.18;;
51499;SDS011;39101;53.478;6.158;2023-09-08T05:39:07;14.63;;;12.23;;
51499;SDS011;39101;53.478;6.158;2023-09-08T05:41:33;14.00;;;12.00;;
51499;SDS011;39101;53.478;6.158;2023-09-08T05:43:59;13.32;;;11.07;;
51499;SDS011;39101;53.478;6.158;2023-09-08T05:46:25;12.57;;;11.20;;
51499;SDS011;39101;53.478;6.158;2023-09-08T05:48:51;14.10;;;11.02;;
51499;SDS011;39101;53.478;6.158;2023-09-08T05:51:16;12.65;;;11.35;;
51499;SDS011;39101;53.478;6.158;2023-09-08T05:53:42;14.73;;;11.60;;
51499;SDS011;39101;53.478;6.158;2023-09-08T05:56:08;15.00;;;11.05;;
51499;SDS011;39101;53.478;6.158;2023-09-08T05:58:35;12.40;;;10.85;;
51499;SDS011;39101;53.478;6.158;2023-09-08T06:01:01;13.38;;;11.02;;
51499;SDS011;39101;53.478;6.158;2023-09-08T06:03:27;13.15;;;11.55;;
51499;SDS011;39101;53.478;6.158;2023-09-08T06:05:53;13.52;;;12.15;;
51499;SDS011;39101;53.478;6.158;2023-09-08T06:08:19;12.90;;;11.55;;
51499;SDS011;39101;53.478;6.158;2023-09-08T06:10:45;13.20;;;11.10;;
51499;SDS011;39101;53.478;6.158;2023-09-08T06:13:10;14.30;;;11.32;;
51499;SDS011;39101;53.478;6.158;2023-09-08T06:15:36;12.70;;;11.40;;
51499;SDS011;39101;53.478;6.158;2023-09-08T06:18:02;14.18;;;11.57;;
51499;SDS011;39101;53.478;6.158;2023-09-08T06:20:28;13.57;;;12.27;;
51499;SDS011;39101;53.478;6.158;2023-09-08T06:22:54;13.60;;;11.25;;
51499;SDS011;39101;53.478;6.158;2023-09-08T06:25:19;15.98;;;11.25;;
51499;SDS011;39101;53.478;6.158;2023-09-08T06:27:45;13.98;;;11.30;;
51499;SDS011;39101;53.478;6.158;2023-09-08T06:30:11;12.32;;;11.02;;
51499;SDS011;39101;53.478;6.158;2023-09-08T06:32:39;14.05;;;11.90;;
51499;SDS011;39101;53.478;6.158;2023-09-08T06:35:05;20.60;;;12.00;;
51499;SDS011;39101;53.478;6.158;2023-09-08T06:37:37;12.70;;;11.40;;
51499;SDS011;39101;53.478;6.158;2023-09-08T06:40:04;17.55;;;12.15;;
51499;SDS011;39101;53.478;6.158;2023-09-08T06:42:30;12.45;;;10.80;;
51499;SDS011;39101;53.478;6.158;2023-09-08T06:44:56;12.95;;;11.63;;
51499;SDS011;39101;53.478;6.158;2023-09-08T06:47:22;13.57;;;11.60;;
51499;SDS011;39101;53.478;6.158;2023-09-08T06:49:48;11.85;;;10.65;;
51499;SDS011;39101;53.478;6.158;2023-09-08T06:52:14;14.77;;;10.75;;
51499;SDS011;39101;53.478;6.158;2023-09-08T06:54:39;13.40;;;11.20;;
51499;SDS011;39101;53.478;6.158;2023-09-08T06:57:05;12.85;;;10.75;;
51499;SDS011;39101;53.478;6.158;2023-09-08T06:59:31;12.65;;;10.55;;
51499;SDS011;39101;53.478;6.158;2023-09-08T07:01:56;12.48;;;10.63;;
51499;SDS011;39101;53.478;6.158;2023-09-08T07:04:22;13.93;;;10.68;;
51499;SDS011;39101;53.478;6.158;2023-09-08T07:06:47;15.02;;;10.40;;
51499;SDS011;39101;53.478;6.158;2023-09-08T07:09:15;13.07;;;9.93;;
51499;SDS011;39101;53.478;6.158;2023-09-08T07:11:41;12.93;;;9.52;;
51499;SDS011;39101;53.478;6.158;2023-09-08T07:14:06;10.43;;;9.30;;
51499;SDS011;39101;53.478;6.158;2023-09-08T07:16:32;11.50;;;9.45;;
51499;SDS011;39101;53.478;6.158;2023-09-08T07:18:58;11.38;;;9.45;;
51499;SDS011;39101;53.478;6.158;2023-09-08T07:21:26;16.83;;;9.95;;
51499;SDS011;39101;53.478;6.158;2023-09-08T07:23:51;11.65;;;9.20;;
51499;SDS011;39101;53.478;6.158;2023-09-08T07:26:18;11.35;;;9.88;;
51499;SDS011;39101;53.478;6.158;2023-09-08T07:28:44;15.27;;;9.30;;
51499;SDS011;39101;53.478;6.158;2023-09-08T07:31:10;11.45;;;9.18;;
51499;SDS011;39101;53.478;6.158;2023-09-08T07:33:36;12.15;;;9.57;;
51499;SDS011;39101;53.478;6.158;2023-09-08T07:36:06;12.57;;;8.88;;
51499;SDS011;39101;53.478;6.158;2023-09-08T07:38:33;11.30;;;9.38;;
51499;SDS011;39101;53.478;6.158;2023-09-08T07:40:59;10.73;;;8.68;;
51499;SDS011;39101;53.478;6.158;2023-09-08T07:43:26;11.80;;;9.73;;
51499;SDS011;39101;53.478;6.158;2023-09-08T07:45:52;13.48;;;9.63;;
51499;SDS011;39101;53.478;6.158;2023-09-08T07:48:18;11.25;;;9.80;;
51499;SDS011;39101;53.478;6.158;2023-09-08T07:50:44;12.10;;;8.77;;
51499;SDS011;39101;53.478;6.158;2023-09-08T07:53:10;11.55;;;10.05;;
51499;SDS011;39101;53.478;6.158;2023-09-08T07:55:35;12.35;;;9.65;;
51499;SDS011;39101;53.478;6.158;2023-09-08T07:58:01;10.20;;;9.10;;
51499;SDS011;39101;53.478;6.158;2023-09-08T08:00:30;13.15;;;10.05;;
51499;SDS011;39101;53.478;6.158;2023-09-08T08:02:57;11.73;;;8.57;;
51499;SDS011;39101;53.478;6.158;2023-09-08T08:05:23;9.93;;;8.30;;
51499;SDS011;39101;53.478;6.158;2023-09-08T08:07:49;11.82;;;8.52;;
51499;SDS011;39101;53.478;6.158;2023-09-08T08:10:15;11.52;;;8.52;;
51499;SDS011;39101;53.478;6.158;2023-09-08T08:12:42;8.88;;;7.70;;
51499;SDS011;39101;53.478;6.158;2023-09-08T08:15:08;9.43;;;8.43;;
51499;SDS011;39101;53.478;6.158;2023-09-08T08:17:37;9.90;;;7.95;;
51499;SDS011;39101;53.478;6.158;2023-09-08T08:20:04;11.70;;;8.68;;
51499;SDS011;39101;53.478;6.158;2023-09-08T08:22:32;11.48;;;9.05;;
51499;SDS011;39101;53.478;6.158;2023-09-08T08:24:58;9.23;;;8.13;;
51499;SDS011;39101;53.478;6.158;2023-09-08T08:27:24;9.60;;;8.13;;
51499;SDS011;39101;53.478;6.158;2023-09-08T08:29:50;10.60;;;8.73;;
51499;SDS011;39101;53.478;6.158;2023-09-08T08:32:16;8.98;;;8.07;;
51499;SDS011;39101;53.478;6.158;2023-09-08T08:34:42;13.50;;;10.05;;
51499;SDS011;39101;53.478;6.158;2023-09-08T08:37:10;11.45;;;8.65;;
51499;SDS011;39101;53.478;6.158;2023-09-08T08:39:36;10.00;;;8.77;;
51499;SDS011;39101;53.478;6.158;2023-09-08T08:42:08;11.48;;;9.18;;
51499;SDS011;39101;53.478;6.158;2023-09-08T08:44:34;11.02;;;9.05;;
51499;SDS011;39101;53.478;6.158;2023-09-08T08:47:02;13.38;;;9.63;;
51499;SDS011;39101;53.478;6.158;2023-09-08T08:49:31;12.88;;;8.55;;
51499;SDS011;39101;53.478;6.158;2023-09-08T08:51:58;12.65;;;9.15;;
51499;SDS011;39101;53.478;6.158;2023-09-08T08:54:24;12.52;;;8.80;;
51499;SDS011;39101;53.478;6.158;2023-09-08T08:56:50;11.88;;;8.88;;
51499;SDS011;39101;53.478;6.158;2023-09-08T08:59:16;9.68;;;8.65;;
51499;SDS011;39101;53.478;6.158;2023-09-08T09:01:42;11.30;;;9.32;;
51499;SDS011;39101;53.478;6.158;2023-09-08T09:04:08;9.73;;;8.32;;
51499;SDS011;39101;53.478;6.158;2023-09-08T09:06:35;9.07;;;7.88;;
51499;SDS011;39101;53.478;6.158;2023-09-08T09:09:04;10.27;;;8.40;;
51499;SDS011;39101;53.478;6.158;2023-09-08T09:11:30;12.07;;;9.20;;
51499;SDS011;39101;53.478;6.158;2023-09-08T09:13:57;11.60;;;8.80;;
51499;SDS011;39101;53.478;6.158;2023-09-08T09:16:23;9.88;;;8.82;;
51499;SDS011;39101;53.478;6.158;2023-09-08T09:18:59;11.93;;;8.93;;
51499;SDS011;39101;53.478;6.158;2023-09-08T09:24:28;12.55;;;8.43;;
51499;SDS011;39101;53.478;6.158;2023-09-08T09:26:56;10.80;;;8.45;;
51499;SDS011;39101;53.478;6.158;2023-09-08T09:29:22;9.35;;;7.50;;
51499;SDS011;39101;53.478;6.158;2023-09-08T09:31:51;9.98;;;8.57;;
51499;SDS011;39101;53.478;6.158;2023-09-08T09:34:18;12.95;;;8.27;;
51499;SDS011;39101;53.478;6.158;2023-09-08T09:36:47;12.23;;;8.55;;
51499;SDS011;39101;53.478;6.158;2023-09-08T09:39:21;10.93;;;7.20;;
51499;SDS011;39101;53.478;6.158;2023-09-08T09:41:49;10.05;;;7.50;;
51499;SDS011;39101;53.478;6.158;2023-09-08T09:44:18;8.43;;;6.90;;
51499;SDS011;39101;53.478;6.158;2023-09-08T09:46:47;8.45;;;7.55;;
51499;SDS011;39101;53.478;6.158;2023-09-08T09:51:44;9.82;;;8.05;;
51499;SDS011;39101;53.478;6.158;2023-09-08T09:54:12;13.48;;;7.82;;
51499;SDS011;39101;53.478;6.158;2023-09-08T09:56:38;8.75;;;7.30;;
51499;SDS011;39101;53.478;6.158;2023-09-08T09:59:08;8.82;;;7.43;;
51499;SDS011;39101;53.478;6.158;2023-09-08T10:01:36;9.77;;;8.10;;
51499;SDS011;39101;53.478;6.158;2023-09-08T10:04:02;8.65;;;6.25;;
51499;SDS011;39101;53.478;6.158;2023-09-08T10:06:39;11.90;;;7.40;;
51499;SDS011;39101;53.478;6.158;2023-09-08T10:09:05;10.98;;;7.03;;
51499;SDS011;39101;53.478;6.158;2023-09-08T10:11:38;8.48;;;6.82;;
51499;SDS011;39101;53.478;6.158;2023-09-08T10:14:09;8.00;;;6.63;;
51499;SDS011;39101;53.478;6.158;2023-09-08T10:16:37;9.82;;;7.18;;
51499;SDS011;39101;53.478;6.158;2023-09-08T10:19:07;9.93;;;7.07;;
51499;SDS011;39101;53.478;6.158;2023-09-08T10:21:33;8.77;;;7.22;;
51499;SDS011;39101;53.478;6.158;2023-09-08T10:24:28;9.10;;;6.97;;
51499;SDS011;39101;53.478;6.158;2023-09-08T10:27:04;8.60;;;6.40;;
51499;SDS011;39101;53.478;6.158;2023-09-08T10:29:34;11.75;;;7.45;;
51499;SDS011;39101;53.478;6.158;2023-09-08T10:32:01;8.45;;;6.78;;
51499;SDS011;39101;53.478;6.158;2023-09-08T10:34:27;10.07;;;7.18;;
51499;SDS011;39101;53.478;6.158;2023-09-08T10:36:55;8.65;;;6.50;;
51499;SDS011;39101;53.478;6.158;2023-09-08T10:44:51;9.15;;;7.57;;
51499;SDS011;39101;53.478;6.158;2023-09-08T10:47:29;11.35;;;7.35;;
51499;SDS011;39101;53.478;6.158;2023-09-08T10:50:25;8.18;;;6.55;;
51499;SDS011;39101;53.478;6.158;2023-09-08T10:53:06;10.40;;;7.25;;
51499;SDS011;39101;53.478;6.158;2023-09-08T10:55:39;9.90;;;6.85;;
51499;SDS011;39101;53.478;6.158;2023-09-08T10:58:35;8.98;;;6.60;;
51499;SDS011;39101;53.478;6.158;2023-09-08T11:01:03;7.80;;;6.60;;
51499;SDS011;39101;53.478;6.158;2023-09-08T11:06:04;9.00;;;6.70;;
51499;SDS011;39101;53.478;6.158;2023-09-08T11:08:31;9.95;;;6.25;;
51499;SDS011;39101;53.478;6.158;2023-09-08T11:10:58;7.10;;;6.32;;
51499;SDS011;39101;53.478;6.158;2023-09-08T11:13:25;11.68;;;7.75;;
51499;SDS011;39101;53.478;6.158;2023-09-08T11:15:53;9.98;;;7.78;;
51499;SDS011;39101;53.478;6.158;2023-09-08T11:20:54;9.68;;;6.70;;
51499;SDS011;39101;53.478;6.158;2023-09-08T11:23:21;9.05;;;6.18;;
51499;SDS011;39101;53.478;6.158;2023-09-08T11:25:47;8.30;;;6.80;;
51499;SDS011;39101;53.478;6.158;2023-09-08T11:28:13;7.28;;;6.45;;
51499;SDS011;39101;53.478;6.158;2023-09-08T11:30:39;9.48;;;7.00;;
51499;SDS011;39101;53.478;6.158;2023-09-08T11:33:13;9.57;;;7.03;;
51499;SDS011;39101;53.478;6.158;2023-09-08T11:35:40;10.10;;;6.80;;
51499;SDS011;39101;53.478;6.158;2023-09-08T11:38:07;9.20;;;6.18;;
51499;SDS011;39101;53.478;6.158;2023-09-08T11:40:35;9.95;;;6.22;;
51499;SDS011;39101;53.478;6.158;2023-09-08T11:43:02;8.25;;;6.13;;
51499;SDS011;39101;53.478;6.158;2023-09-08T11:45:28;9.75;;;6.25;;
51499;SDS011;39101;53.478;6.158;2023-09-08T11:47:56;7.95;;;5.90;;
51499;SDS011;39101;53.478;6.158;2023-09-08T11:50:22;8.07;;;6.10;;
51499;SDS011;39101;53.478;6.158;2023-09-08T11:52:49;7.07;;;5.65;;
51499;SDS011;39101;53.478;6.158;2023-09-08T11:55:17;8.95;;;5.60;;
51499;SDS011;39101;53.478;6.158;2023-09-08T11:57:49;8.88;;;6.00;;
51499;SDS011;39101;53.478;6.158;2023-09-08T12:00:19;10.07;;;6.10;;
51499;SDS011;39101;53.478;6.158;2023-09-08T12:02:47;8.35;;;6.00;;
51499;SDS011;39101;53.478;6.158;2023-09-08T12:05:20;6.65;;;5.80;;
51499;SDS011;39101;53.478;6.158;2023-09-08T12:07:53;9.05;;;5.70;;
51499;SDS011;39101;53.478;6.158;2023-09-08T12:10:21;11.13;;;5.38;;
51499;SDS011;39101;53.478;6.158;2023-09-08T12:12:56;8.25;;;6.07;;
51499;SDS011;39101;53.478;6.158;2023-09-08T12:15:38;7.30;;;5.78;;
51499;SDS011;39101;53.478;6.158;2023-09-08T12:18:07;9.43;;;6.18;;
51499;SDS011;39101;53.478;6.158;2023-09-08T12:20:35;6.20;;;5.60;;
51499;SDS011;39101;53.478;6.158;2023-09-08T12:23:02;8.55;;;5.72;;
51499;SDS011;39101;53.478;6.158;2023-09-08T12:25:43;7.90;;;5.53;;
51499;SDS011;39101;53.478;6.158;2023-09-08T12:28:21;10.20;;;5.97;;
51499;SDS011;39101;53.478;6.158;2023-09-08T12:30:48;10.23;;;5.80;;
51499;SDS011;39101;53.478;6.158;2023-09-08T12:33:18;7.63;;;5.00;;
51499;SDS011;39101;53.478;6.158;2023-09-08T12:35:45;7.50;;;5.75;;
51499;SDS011;39101;53.478;6.158;2023-09-08T12:38:13;8.65;;;5.32;;
51499;SDS011;39101;53.478;6.158;2023-09-08T12:40:39;6.45;;;5.50;;
51499;SDS011;39101;53.478;6.158;2023-09-08T12:43:05;7.32;;;5.35;;
51499;SDS011;39101;53.478;6.158;2023-09-08T12:45:31;6.60;;;5.63;;
51499;SDS011;39101;53.478;6.158;2023-09-08T12:48:00;10.00;;;6.10;;
51499;SDS011;39101;53.478;6.158;2023-09-08T12:50:27;6.78;;;5.10;;
51499;SDS011;39101;53.478;6.158;2023-09-08T12:52:53;7.78;;;5.65;;
51499;SDS011;39101;53.478;6.158;2023-09-08T12:55:19;7.47;;;5.55;;
51499;SDS011;39101;53.478;6.158;2023-09-08T12:57:45;8.10;;;5.25;;
51499;SDS011;39101;53.478;6.158;2023-09-08T13:00:12;6.72;;;5.18;;
51499;SDS011;39101;53.478;6.158;2023-09-08T13:02:38;7.70;;;5.28;;
51499;SDS011;39101;53.478;6.158;2023-09-08T13:05:05;6.70;;;5.32;;
51499;SDS011;39101;53.478;6.158;2023-09-08T13:07:30;8.27;;;5.30;;
51499;SDS011;39101;53.478;6.158;2023-09-08T13:09:56;8.50;;;5.88;;
51499;SDS011;39101;53.478;6.158;2023-09-08T13:12:22;7.40;;;5.38;;
51499;SDS011;39101;53.478;6.158;2023-09-08T13:14:47;9.55;;;5.38;;
51499;SDS011;39101;53.478;6.158;2023-09-08T13:17:14;8.55;;;4.80;;
51499;SDS011;39101;53.478;6.158;2023-09-08T13:19:43;8.50;;;5.07;;
51499;SDS011;39101;53.478;6.158;2023-09-08T13:22:10;7.38;;;5.32;;
51499;SDS011;39101;53.478;6.158;2023-09-08T13:24:36;7.32;;;4.95;;
51499;SDS011;39101;53.478;6.158;2023-09-08T13:27:02;9.07;;;5.22;;
51499;SDS011;39101;53.478;6.158;2023-09-08T13:29:28;6.80;;;5.57;;
51499;SDS011;39101;53.478;6.158;2023-09-08T13:31:54;6.18;;;5.47;;
51499;SDS011;39101;53.478;6.158;2023-09-08T13:34:20;6.45;;;5.38;;
51499;SDS011;39101;53.478;6.158;2023-09-08T13:36:46;6.97;;;4.90;;
51499;SDS011;39101;53.478;6.158;2023-09-08T13:39:12;5.78;;;4.95;;
51499;SDS011;39101;53.478;6.158;2023-09-08T13:41:50;7.38;;;4.90;;
51499;SDS011;39101;53.478;6.158;2023-09-08T13:44:17;8.77;;;5.28;;
51499;SDS011;39101;53.478;6.158;2023-09-08T13:46:51;10.73;;;5.47;;
51499;SDS011;39101;53.478;6.158;2023-09-08T13:49:18;8.93;;;4.78;;
51499;SDS011;39101;53.478;6.158;2023-09-08T13:51:44;5.68;;;4.85;;
51499;SDS011;39101;53.478;6.158;2023-09-08T13:54:10;7.20;;;4.90;;
51499;SDS011;39101;53.478;6.158;2023-09-08T13:56:40;7.38;;;4.90;;
51499;SDS011;39101;53.478;6.158;2023-09-08T13:59:07;8.30;;;5.10;;
51499;SDS011;39101;53.478;6.158;2023-09-08T14:01:33;8.63;;;5.60;;
51499;SDS011;39101;53.478;6.158;2023-09-08T14:04:00;9.65;;;5.30;;
51499;SDS011;39101;53.478;6.158;2023-09-08T14:06:27;6.43;;;4.88;;
51499;SDS011;39101;53.478;6.158;2023-09-08T14:08:53;7.65;;;5.03;;
51499;SDS011;39101;53.478;6.158;2023-09-08T14:11:19;6.07;;;5.03;;
51499;SDS011;39101;53.478;6.158;2023-09-08T14:13:45;8.73;;;5.07;;
51499;SDS011;39101;53.478;6.158;2023-09-08T14:16:11;7.85;;;4.95;;
51499;SDS011;39101;53.478;6.158;2023-09-08T14:18:37;8.32;;;5.20;;
51499;SDS011;39101;53.478;6.158;2023-09-08T14:21:02;6.10;;;4.93;;
51499;SDS011;39101;53.478;6.158;2023-09-08T14:23:29;7.65;;;5.55;;
51499;SDS011;39101;53.478;6.158;2023-09-08T14:25:55;10.10;;;5.32;;
51499;SDS011;39101;53.478;6.158;2023-09-08T14:28:20;5.88;;;4.97;;
51499;SDS011;39101;53.478;6.158;2023-09-08T14:30:46;8.45;;;5.30;;
51499;SDS011;39101;53.478;6.158;2023-09-08T14:33:12;10.05;;;5.45;;
51499;SDS011;39101;53.478;6.158;2023-09-08T14:35:41;6.93;;;5.18;;
51499;SDS011;39101;53.478;6.158;2023-09-08T14:38:16;6.78;;;4.90;;
51499;SDS011;39101;53.478;6.158;2023-09-08T14:40:45;6.10;;;5.00;;
51499;SDS011;39101;53.478;6.158;2023-09-08T14:43:18;9.40;;;5.00;;
51499;SDS011;39101;53.478;6.158;2023-09-08T14:45:44;7.53;;;5.10;;
51499;SDS011;39101;53.478;6.158;2023-09-08T14:48:10;8.75;;;5.70;;
51499;SDS011;39101;53.478;6.158;2023-09-08T14:50:36;8.25;;;5.43;;
51499;SDS011;39101;53.478;6.158;2023-09-08T14:53:01;6.60;;;4.97;;
51499;SDS011;39101;53.478;6.158;2023-09-08T14:55:27;6.60;;;4.97;;